sensor_id;sensor_type;location;lat;lon;timestamp;temperature;humidity
4934;DHT22;2482;49.154;8.254;2022-08-18T00:01:10;21.00;99.90
4934;DHT22;2482;49.154;8.254;2022-08-18T00:03:41;21.00;99.90
4934;DHT22;2482;49.154;8.254;2022-08-18T00:06:26;21.00;99.90
4934;DHT22;2482;49.154;8.254;2022-08-18T00:09:02;20.80;99.90
4934;DHT22;2482;49.154;8.254;2022-08-18T00:11:34;20.80;99.90
4934;DHT22;2482;49.154;8.254;2022-08-18T00:14:15;20.80;99.90
4934;DHT22;2482;49.154;8.254;2022-08-18T00:16:51;20.70;99.90
4934;DHT22;2482;49.154;8.254;2022-08-18T00:19:20;20.80;99.90
4934;DHT22;2482;49.154;8.254;2022-08-18T00:22:09;20.80;99.90
4934;DHT22;2482;49.154;8.254;2022-08-18T00:24:45;20.80;99.90
4934;DHT22;2482;49.154;8.254;2022-08-18T00:27:17;20.70;99.90
4934;DHT22;2482;49.154;8.254;2022-08-18T00:29:47;20.60;99.90
4934;DHT22;2482;49.154;8.254;2022-08-18T00:32:37;20.40;99.90
4934;DHT22;2482;49.154;8.254;2022-08-18T00:35:10;20.40;99.90
4934;DHT22;2482;49.154;8.254;2022-08-18T00:37:41;20.30;99.90
4934;DHT22;2482;49.154;8.254;2022-08-18T00:40:11;20.30;99.90
4934;DHT22;2482;49.154;8.254;2022-08-18T00:42:46;20.10;99.90
4934;DHT22;2482;49.154;8.254;2022-08-18T00:45:20;20.10;99.90
4934;DHT22;2482;49.154;8.254;2022-08-18T00:47:51;20.20;99.90
4934;DHT22;2482;49.154;8.254;2022-08-18T00:51:01;20.20;99.90
4934;DHT22;2482;49.154;8.254;2022-08-18T00:53:26;20.20;99.90
4934;DHT22;2482;49.154;8.254;2022-08-18T00:56:00;20.10;99.90
4934;DHT22;2482;49.154;8.254;2022-08-18T00:58:54;20.10;99.90
4934;DHT22;2482;49.154;8.254;2022-08-18T01:01:28;20.10;99.90
4934;DHT22;2482;49.154;8.254;2022-08-18T01:04:09;20.20;99.90
4934;DHT22;2482;49.154;8.254;2022-08-18T01:06:43;20.20;99.90
4934;DHT22;2482;49.154;8.254;2022-08-18T01:09:13;20.30;99.90
4934;DHT22;2482;49.154;8.254;2022-08-18T01:11:43;20.20;99.90
4934;DHT22;2482;49.154;8.254;2022-08-18T01:14:11;20.20;99.90
4934;DHT22;2482;49.154;8.254;2022-08-18T01:16:43;20.20;99.90
4934;DHT22;2482;49.154;8.254;2022-08-18T01:19:29;20.20;99.90
4934;DHT22;2482;49.154;8.254;2022-08-18T01:24:58;20.10;99.90
4934;DHT22;2482;49.154;8.254;2022-08-18T01:27:44;20.30;99.90
4934;DHT22;2482;49.154;8.254;2022-08-18T01:30:15;20.30;99.90
4934;DHT22;2482;49.154;8.254;2022-08-18T01:32:44;20.20;99.90
4934;DHT22;2482;49.154;8.254;2022-08-18T01:35:15;20.20;99.90
4934;DHT22;2482;49.154;8.254;2022-08-18T01:37:43;20.10;99.90
4934;DHT22;2482;49.154;8.254;2022-08-18T01:40:14;20.00;99.90
4934;DHT22;2482;49.154;8.254;2022-08-18T01:43:03;19.80;99.90
4934;DHT22;2482;49.154;8.254;2022-08-18T01:45:30;19.80;99.90
4934;DHT22;2482;49.154;8.254;2022-08-18T01:47:59;19.50;99.90
4934;DHT22;2482;49.154;8.254;2022-08-18T01:50:27;19.60;99.90
4934;DHT22;2482;49.154;8.254;2022-08-18T01:52:55;19.60;99.90
4934;DHT22;2482;49.154;8.254;2022-08-18T01:55:22;19.70;99.90
4934;DHT22;2482;49.154;8.254;2022-08-18T01:57:50;19.80;99.90
4934;DHT22;2482;49.154;8.254;2022-08-18T02:00:18;19.70;99.90
4934;DHT22;2482;49.154;8.254;2022-08-18T02:02:46;19.70;99.90
4934;DHT22;2482;49.154;8.254;2022-08-18T02:05:37;19.80;99.90
4934;DHT22;2482;49.154;8.254;2022-08-18T02:08:08;19.70;99.90
4934;DHT22;2482;49.154;8.254;2022-08-18T02:10:38;19.70;99.90
4934;DHT22;2482;49.154;8.254;2022-08-18T02:13:05;19.80;99.90
4934;DHT22;2482;49.154;8.254;2022-08-18T02:15:32;19.80;99.90
4934;DHT22;2482;49.154;8.254;2022-08-18T02:18:00;19.70;99.90
4934;DHT22;2482;49.154;8.254;2022-08-18T02:20:27;19.70;99.90
4934;DHT22;2482;49.154;8.254;2022-08-18T02:22:54;19.70;99.90
4934;DHT22;2482;49.154;8.254;2022-08-18T02:25:24;19.60;99.90
4934;DHT22;2482;49.154;8.254;2022-08-18T02:27:51;19.50;99.90
4934;DHT22;2482;49.154;8.254;2022-08-18T02:30:19;19.50;99.90
4934;DHT22;2482;49.154;8.254;2022-08-18T02:32:46;19.50;99.90
4934;DHT22;2482;49.154;8.254;2022-08-18T02:35:13;19.50;99.90
4934;DHT22;2482;49.154;8.254;2022-08-18T02:37:41;19.50;99.90
4934;DHT22;2482;49.154;8.254;2022-08-18T02:40:09;19.60;99.90
4934;DHT22;2482;49.154;8.254;2022-08-18T02:42:41;19.70;99.90
4934;DHT22;2482;49.154;8.254;2022-08-18T02:45:09;19.50;99.90
4934;DHT22;2482;49.154;8.254;2022-08-18T02:47:37;19.40;99.90
4934;DHT22;2482;49.154;8.254;2022-08-18T02:50:06;19.40;99.90
4934;DHT22;2482;49.154;8.254;2022-08-18T02:52:36;19.30;99.90
4934;DHT22;2482;49.154;8.254;2022-08-18T02:55:06;19.30;99.90
4934;DHT22;2482;49.154;8.254;2022-08-18T02:57:33;19.30;99.90
4934;DHT22;2482;49.154;8.254;2022-08-18T03:00:01;19.30;99.90
4934;DHT22;2482;49.154;8.254;2022-08-18T03:02:28;19.30;99.90
4934;DHT22;2482;49.154;8.254;2022-08-18T03:04:55;19.30;99.90
4934;DHT22;2482;49.154;8.254;2022-08-18T03:07:22;19.30;99.90
4934;DHT22;2482;49.154;8.254;2022-08-18T03:09:51;19.30;99.90
4934;DHT22;2482;49.154;8.254;2022-08-18T03:12:18;19.30;99.90
4934;DHT22;2482;49.154;8.254;2022-08-18T03:14:45;19.30;99.90
4934;DHT22;2482;49.154;8.254;2022-08-18T03:17:12;19.20;99.90
4934;DHT22;2482;49.154;8.254;2022-08-18T03:19:41;19.30;99.90
4934;DHT22;2482;49.154;8.254;2022-08-18T03:22:13;19.40;99.90
4934;DHT22;2482;49.154;8.254;2022-08-18T03:24:55;19.40;99.90
4934;DHT22;2482;49.154;8.254;2022-08-18T03:27:22;19.30;99.90
4934;DHT22;2482;49.154;8.254;2022-08-18T03:29:50;19.30;99.90
4934;DHT22;2482;49.154;8.254;2022-08-18T03:32:17;19.30;99.90
4934;DHT22;2482;49.154;8.254;2022-08-18T03:34:44;19.30;99.90
4934;DHT22;2482;49.154;8.254;2022-08-18T03:37:11;19.30;99.90
4934;DHT22;2482;49.154;8.254;2022-08-18T03:39:41;19.30;99.90
4934;DHT22;2482;49.154;8.254;2022-08-18T03:42:09;19.30;99.90
4934;DHT22;2482;49.154;8.254;2022-08-18T03:44:36;19.30;99.90
4934;DHT22;2482;49.154;8.254;2022-08-18T03:47:07;19.30;99.90
4934;DHT22;2482;49.154;8.254;2022-08-18T03:49:36;19.40;99.90
4934;DHT22;2482;49.154;8.254;2022-08-18T03:52:07;19.30;99.90
4934;DHT22;2482;49.154;8.254;2022-08-18T03:54:35;19.30;99.90
4934;DHT22;2482;49.154;8.254;2022-08-18T03:57:07;19.40;99.90
4934;DHT22;2482;49.154;8.254;2022-08-18T03:59:35;19.40;99.90
4934;DHT22;2482;49.154;8.254;2022-08-18T04:02:03;19.50;99.90
4934;DHT22;2482;49.154;8.254;2022-08-18T04:04:30;19.40;99.90
4934;DHT22;2482;49.154;8.254;2022-08-18T04:07:10;19.30;99.90
4934;DHT22;2482;49.154;8.254;2022-08-18T04:09:39;19.30;99.90
4934;DHT22;2482;49.154;8.254;2022-08-18T04:12:11;19.30;99.90
4934;DHT22;2482;49.154;8.254;2022-08-18T04:14:45;19.40;99.90
4934;DHT22;2482;49.154;8.254;2022-08-18T04:17:19;19.20;99.90
4934;DHT22;2482;49.154;8.254;2022-08-18T04:19:52;19.10;99.90
4934;DHT22;2482;49.154;8.254;2022-08-18T04:22:20;19.10;99.90
4934;DHT22;2482;49.154;8.254;2022-08-18T04:24:48;19.20;99.90
4934;DHT22;2482;49.154;8.254;2022-08-18T04:27:17;19.10;99.90
4934;DHT22;2482;49.154;8.254;2022-08-18T04:29:44;19.20;99.90
4934;DHT22;2482;49.154;8.254;2022-08-18T04:32:12;19.40;99.90
4934;DHT22;2482;49.154;8.254;2022-08-18T04:34:39;19.40;99.90
4934;DHT22;2482;49.154;8.254;2022-08-18T04:37:07;19.30;99.90
4934;DHT22;2482;49.154;8.254;2022-08-18T04:39:35;19.30;99.90
4934;DHT22;2482;49.154;8.254;2022-08-18T04:42:03;19.20;99.90
4934;DHT22;2482;49.154;8.254;2022-08-18T04:44:32;19.20;99.90
4934;DHT22;2482;49.154;8.254;2022-08-18T04:47:00;19.20;99.90
4934;DHT22;2482;49.154;8.254;2022-08-18T04:49:27;19.10;99.90
4934;DHT22;2482;49.154;8.254;2022-08-18T04:51:56;19.10;99.90
4934;DHT22;2482;49.154;8.254;2022-08-18T04:55:03;19.20;99.90
4934;DHT22;2482;49.154;8.254;2022-08-18T04:57:30;19.30;99.90
4934;DHT22;2482;49.154;8.254;2022-08-18T05:00:02;19.30;99.90
4934;DHT22;2482;49.154;8.254;2022-08-18T05:02:30;19.30;99.90
4934;DHT22;2482;49.154;8.254;2022-08-18T05:04:59;19.20;99.90
4934;DHT22;2482;49.154;8.254;2022-08-18T05:07:29;19.20;99.90
4934;DHT22;2482;49.154;8.254;2022-08-18T05:09:56;19.20;99.90
4934;DHT22;2482;49.154;8.254;2022-08-18T05:12:23;19.30;99.90
4934;DHT22;2482;49.154;8.254;2022-08-18T05:14:52;19.20;99.90
4934;DHT22;2482;49.154;8.254;2022-08-18T05:17:19;19.30;99.90
4934;DHT22;2482;49.154;8.254;2022-08-18T05:19:47;19.20;99.90
4934;DHT22;2482;49.154;8.254;2022-08-18T05:22:15;19.10;99.90
4934;DHT22;2482;49.154;8.254;2022-08-18T05:24:54;19.10;99.90
4934;DHT22;2482;49.154;8.254;2022-08-18T05:27:21;19.20;99.90
4934;DHT22;2482;49.154;8.254;2022-08-18T05:29:48;19.30;99.90
4934;DHT22;2482;49.154;8.254;2022-08-18T05:32:17;19.20;99.90
4934;DHT22;2482;49.154;8.254;2022-08-18T05:35:12;19.20;99.90
4934;DHT22;2482;49.154;8.254;2022-08-18T05:40:39;19.30;99.90
4934;DHT22;2482;49.154;8.254;2022-08-18T05:43:07;19.30;99.90
4934;DHT22;2482;49.154;8.254;2022-08-18T05:45:36;19.30;99.90
4934;DHT22;2482;49.154;8.254;2022-08-18T05:48:05;19.30;99.90
4934;DHT22;2482;49.154;8.254;2022-08-18T05:50:34;19.20;99.90
4934;DHT22;2482;49.154;8.254;2022-08-18T05:53:08;19.30;99.90
4934;DHT22;2482;49.154;8.254;2022-08-18T05:56:03;19.30;99.90
4934;DHT22;2482;49.154;8.254;2022-08-18T05:58:52;19.30;99.90
4934;DHT22;2482;49.154;8.254;2022-08-18T06:01:25;19.30;99.90
4934;DHT22;2482;49.154;8.254;2022-08-18T06:04:19;19.40;99.90
4934;DHT22;2482;49.154;8.254;2022-08-18T06:07:03;19.40;99.90
4934;DHT22;2482;49.154;8.254;2022-08-18T06:09:47;19.60;99.90
4934;DHT22;2482;49.154;8.254;2022-08-18T06:12:33;19.70;99.90
4934;DHT22;2482;49.154;8.254;2022-08-18T06:15:30;19.80;99.90
4934;DHT22;2482;49.154;8.254;2022-08-18T06:27:35;19.90;99.90
4934;DHT22;2482;49.154;8.254;2022-08-18T06:30:53;19.90;99.90
4934;DHT22;2482;49.154;8.254;2022-08-18T06:33:55;19.90;99.90
4934;DHT22;2482;49.154;8.254;2022-08-18T06:39:29;20.00;99.90
4934;DHT22;2482;49.154;8.254;2022-08-18T06:42:00;20.00;99.90
4934;DHT22;2482;49.154;8.254;2022-08-18T06:44:38;20.00;99.90
4934;DHT22;2482;49.154;8.254;2022-08-18T06:52:37;19.90;99.90
4934;DHT22;2482;49.154;8.254;2022-08-18T06:55:08;20.00;99.90
4934;DHT22;2482;49.154;8.254;2022-08-18T06:57:53;20.00;99.90
4934;DHT22;2482;49.154;8.254;2022-08-18T07:00:25;20.00;99.90
4934;DHT22;2482;49.154;8.254;2022-08-18T07:03:05;20.10;99.90
4934;DHT22;2482;49.154;8.254;2022-08-18T07:05:59;20.30;99.90
4934;DHT22;2482;49.154;8.254;2022-08-18T07:08:39;20.50;99.90
4934;DHT22;2482;49.154;8.254;2022-08-18T07:13:50;20.60;99.90
4934;DHT22;2482;49.154;8.254;2022-08-18T07:16:39;20.70;99.90
4934;DHT22;2482;49.154;8.254;2022-08-18T07:19:27;20.70;99.90
4934;DHT22;2482;49.154;8.254;2022-08-18T07:22:09;20.70;99.90
4934;DHT22;2482;49.154;8.254;2022-08-18T07:24:44;20.60;99.90
4934;DHT22;2482;49.154;8.254;2022-08-18T07:27:18;20.70;99.90
4934;DHT22;2482;49.154;8.254;2022-08-18T07:30:04;20.70;99.90
4934;DHT22;2482;49.154;8.254;2022-08-18T07:32:59;20.90;99.90
4934;DHT22;2482;49.154;8.254;2022-08-18T07:35:46;21.10;99.90
4934;DHT22;2482;49.154;8.254;2022-08-18T07:41:22;20.90;99.90
4934;DHT22;2482;49.154;8.254;2022-08-18T07:44:09;20.80;99.90
4934;DHT22;2482;49.154;8.254;2022-08-18T07:47:02;20.80;99.90
4934;DHT22;2482;49.154;8.254;2022-08-18T07:49:34;20.80;99.90
4934;DHT22;2482;49.154;8.254;2022-08-18T07:52:20;20.90;99.90
4934;DHT22;2482;49.154;8.254;2022-08-18T07:55:29;20.70;99.90
4934;DHT22;2482;49.154;8.254;2022-08-18T08:03:45;20.60;99.90
4934;DHT22;2482;49.154;8.254;2022-08-18T08:06:52;20.60;99.90
4934;DHT22;2482;49.154;8.254;2022-08-18T08:15:55;20.70;99.90
4934;DHT22;2482;49.154;8.254;2022-08-18T08:21:24;20.70;99.90
4934;DHT22;2482;49.154;8.254;2022-08-18T08:24:16;20.70;99.90
4934;DHT22;2482;49.154;8.254;2022-08-18T08:30:16;20.80;99.90
4934;DHT22;2482;49.154;8.254;2022-08-18T08:35:47;20.80;99.90
4934;DHT22;2482;49.154;8.254;2022-08-18T08:38:37;20.80;99.90
4934;DHT22;2482;49.154;8.254;2022-08-18T08:41:14;20.60;99.90
4934;DHT22;2482;49.154;8.254;2022-08-18T08:44:14;20.60;99.90
4934;DHT22;2482;49.154;8.254;2022-08-18T08:49:37;20.60;99.90
4934;DHT22;2482;49.154;8.254;2022-08-18T08:52:15;20.60;99.90
4934;DHT22;2482;49.154;8.254;2022-08-18T08:54:50;20.70;99.90
4934;DHT22;2482;49.154;8.254;2022-08-18T08:57:24;20.70;99.90
4934;DHT22;2482;49.154;8.254;2022-08-18T08:59:54;20.90;99.90
4934;DHT22;2482;49.154;8.254;2022-08-18T09:02:51;21.00;99.90
4934;DHT22;2482;49.154;8.254;2022-08-18T09:05:40;21.10;99.90
4934;DHT22;2482;49.154;8.254;2022-08-18T09:08:37;21.30;99.90
4934;DHT22;2482;49.154;8.254;2022-08-18T09:11:35;21.30;99.90
4934;DHT22;2482;49.154;8.254;2022-08-18T09:14:42;21.30;99.90
4934;DHT22;2482;49.154;8.254;2022-08-18T09:23:43;21.80;99.90
4934;DHT22;2482;49.154;8.254;2022-08-18T09:26:38;22.20;99.90
4934;DHT22;2482;49.154;8.254;2022-08-18T09:29:25;22.50;99.90
4934;DHT22;2482;49.154;8.254;2022-08-18T09:37:48;22.90;99.90
4934;DHT22;2482;49.154;8.254;2022-08-18T09:44:09;22.90;99.90
4934;DHT22;2482;49.154;8.254;2022-08-18T09:46:53;22.40;99.90
4934;DHT22;2482;49.154;8.254;2022-08-18T09:54:32;21.60;99.90
4934;DHT22;2482;49.154;8.254;2022-08-18T10:02:11;21.30;99.90
4934;DHT22;2482;49.154;8.254;2022-08-18T10:10:54;21.20;99.90
4934;DHT22;2482;49.154;8.254;2022-08-18T10:17:10;21.30;99.90
4934;DHT22;2482;49.154;8.254;2022-08-18T10:22:53;21.00;99.90
4934;DHT22;2482;49.154;8.254;2022-08-18T10:25:41;21.00;99.90
4934;DHT22;2482;49.154;8.254;2022-08-18T10:28:53;21.00;99.90
4934;DHT22;2482;49.154;8.254;2022-08-18T10:31:23;21.00;99.90
4934;DHT22;2482;49.154;8.254;2022-08-18T10:34:04;20.90;99.90
4934;DHT22;2482;49.154;8.254;2022-08-18T10:39:30;21.20;99.90
4934;DHT22;2482;49.154;8.254;2022-08-18T10:42:30;21.30;99.90
4934;DHT22;2482;49.154;8.254;2022-08-18T10:45:09;21.60;99.90
4934;DHT22;2482;49.154;8.254;2022-08-18T10:48:36;21.90;99.90
4934;DHT22;2482;49.154;8.254;2022-08-18T10:51:19;22.10;99.90
4934;DHT22;2482;49.154;8.254;2022-08-18T10:54:13;22.20;99.90
4934;DHT22;2482;49.154;8.254;2022-08-18T10:56:54;22.40;99.90
4934;DHT22;2482;49.154;8.254;2022-08-18T11:05:18;22.90;99.90
4934;DHT22;2482;49.154;8.254;2022-08-18T11:07:53;22.80;99.90
4934;DHT22;2482;49.154;8.254;2022-08-18T11:10:41;22.70;99.90
4934;DHT22;2482;49.154;8.254;2022-08-18T11:13:47;22.60;99.90
4934;DHT22;2482;49.154;8.254;2022-08-18T11:16:35;22.80;99.90
4934;DHT22;2482;49.154;8.254;2022-08-18T11:19:16;22.80;99.90
4934;DHT22;2482;49.154;8.254;2022-08-18T11:21:49;22.90;99.90
4934;DHT22;2482;49.154;8.254;2022-08-18T11:24:29;23.10;99.90
4934;DHT22;2482;49.154;8.254;2022-08-18T11:27:16;23.40;99.90
4934;DHT22;2482;49.154;8.254;2022-08-18T11:29:51;23.50;99.90
4934;DHT22;2482;49.154;8.254;2022-08-18T11:32:32;23.40;99.90
4934;DHT22;2482;49.154;8.254;2022-08-18T11:35:14;23.40;99.90
4934;DHT22;2482;49.154;8.254;2022-08-18T11:40:28;23.40;99.90
4934;DHT22;2482;49.154;8.254;2022-08-18T11:43:33;23.50;99.90
4934;DHT22;2482;49.154;8.254;2022-08-18T11:46:26;23.60;99.90
4934;DHT22;2482;49.154;8.254;2022-08-18T11:48:59;23.60;99.90
4934;DHT22;2482;49.154;8.254;2022-08-18T11:51:32;23.50;99.90
4934;DHT22;2482;49.154;8.254;2022-08-18T11:56:39;23.50;99.90
4934;DHT22;2482;49.154;8.254;2022-08-18T11:59:29;23.50;99.90
4934;DHT22;2482;49.154;8.254;2022-08-18T12:02:18;23.50;99.90
4934;DHT22;2482;49.154;8.254;2022-08-18T12:04:59;23.60;99.90
4934;DHT22;2482;49.154;8.254;2022-08-18T12:07:40;24.00;99.90
4934;DHT22;2482;49.154;8.254;2022-08-18T12:10:26;24.10;99.90
4934;DHT22;2482;49.154;8.254;2022-08-18T12:12:55;24.20;99.90
4934;DHT22;2482;49.154;8.254;2022-08-18T12:15:32;24.10;99.90
4934;DHT22;2482;49.154;8.254;2022-08-18T12:18:14;24.20;99.90
4934;DHT22;2482;49.154;8.254;2022-08-18T12:21:04;24.50;99.90
4934;DHT22;2482;49.154;8.254;2022-08-18T12:23:39;25.00;99.90
4934;DHT22;2482;49.154;8.254;2022-08-18T12:26:17;25.40;99.90
4934;DHT22;2482;49.154;8.254;2022-08-18T12:29:05;25.30;99.90
4934;DHT22;2482;49.154;8.254;2022-08-18T12:31:37;25.10;99.90
4934;DHT22;2482;49.154;8.254;2022-08-18T12:34:15;25.30;99.90
4934;DHT22;2482;49.154;8.254;2022-08-18T12:36:52;25.20;99.90
4934;DHT22;2482;49.154;8.254;2022-08-18T12:39:22;25.10;99.90
4934;DHT22;2482;49.154;8.254;2022-08-18T12:41:50;25.30;99.90
4934;DHT22;2482;49.154;8.254;2022-08-18T12:44:17;25.50;99.90
4934;DHT22;2482;49.154;8.254;2022-08-18T12:46:46;25.50;99.90
4934;DHT22;2482;49.154;8.254;2022-08-18T12:49:24;25.50;99.90
4934;DHT22;2482;49.154;8.254;2022-08-18T12:51:52;25.50;99.90
4934;DHT22;2482;49.154;8.254;2022-08-18T12:54:24;25.60;99.90
4934;DHT22;2482;49.154;8.254;2022-08-18T12:56:53;25.70;99.90
4934;DHT22;2482;49.154;8.254;2022-08-18T12:59:22;25.80;99.90
4934;DHT22;2482;49.154;8.254;2022-08-18T13:01:50;25.90;99.90
4934;DHT22;2482;49.154;8.254;2022-08-18T13:04:37;26.00;99.90
4934;DHT22;2482;49.154;8.254;2022-08-18T13:07:05;26.00;99.90
4934;DHT22;2482;49.154;8.254;2022-08-18T13:09:35;25.80;99.90
4934;DHT22;2482;49.154;8.254;2022-08-18T13:12:20;25.60;99.90
4934;DHT22;2482;49.154;8.254;2022-08-18T13:14:50;25.40;99.90
4934;DHT22;2482;49.154;8.254;2022-08-18T13:17:20;25.30;99.90
4934;DHT22;2482;49.154;8.254;2022-08-18T13:20:11;25.40;99.90
4934;DHT22;2482;49.154;8.254;2022-08-18T13:22:42;25.30;99.90
4934;DHT22;2482;49.154;8.254;2022-08-18T13:25:12;25.70;99.90
4934;DHT22;2482;49.154;8.254;2022-08-18T13:27:59;26.10;99.90
4934;DHT22;2482;49.154;8.254;2022-08-18T13:30:27;26.10;99.90
4934;DHT22;2482;49.154;8.254;2022-08-18T13:32:58;26.10;99.90
4934;DHT22;2482;49.154;8.254;2022-08-18T13:35:32;26.40;99.90
4934;DHT22;2482;49.154;8.254;2022-08-18T13:38:11;26.40;99.90
4934;DHT22;2482;49.154;8.254;2022-08-18T13:40:48;26.30;99.90
4934;DHT22;2482;49.154;8.254;2022-08-18T13:43:18;26.30;99.90
4934;DHT22;2482;49.154;8.254;2022-08-18T13:45:49;26.00;99.90
4934;DHT22;2482;49.154;8.254;2022-08-18T13:48:21;26.10;99.90
4934;DHT22;2482;49.154;8.254;2022-08-18T13:50:53;26.30;99.90
4934;DHT22;2482;49.154;8.254;2022-08-18T13:53:22;26.30;99.90
4934;DHT22;2482;49.154;8.254;2022-08-18T13:55:53;26.30;99.90
4934;DHT22;2482;49.154;8.254;2022-08-18T13:58:27;26.30;99.90
4934;DHT22;2482;49.154;8.254;2022-08-18T14:01:01;26.10;99.90
4934;DHT22;2482;49.154;8.254;2022-08-18T14:03:49;26.20;99.90
4934;DHT22;2482;49.154;8.254;2022-08-18T14:06:17;26.20;99.90
4934;DHT22;2482;49.154;8.254;2022-08-18T14:08:50;26.50;99.90
4934;DHT22;2482;49.154;8.254;2022-08-18T14:11:21;26.20;99.90
4934;DHT22;2482;49.154;8.254;2022-08-18T14:13:53;25.90;99.90
4934;DHT22;2482;49.154;8.254;2022-08-18T14:16:25;25.80;99.90
4934;DHT22;2482;49.154;8.254;2022-08-18T14:18:53;25.90;99.90
4934;DHT22;2482;49.154;8.254;2022-08-18T14:21:44;26.10;99.90
4934;DHT22;2482;49.154;8.254;2022-08-18T14:24:32;26.10;99.90
4934;DHT22;2482;49.154;8.254;2022-08-18T14:27:27;25.80;99.90
4934;DHT22;2482;49.154;8.254;2022-08-18T14:30:07;26.00;99.90
4934;DHT22;2482;49.154;8.254;2022-08-18T14:32:37;26.10;99.90
4934;DHT22;2482;49.154;8.254;2022-08-18T14:35:17;25.70;99.90
4934;DHT22;2482;49.154;8.254;2022-08-18T14:38:05;25.70;99.90
4934;DHT22;2482;49.154;8.254;2022-08-18T14:40:37;25.80;99.90
4934;DHT22;2482;49.154;8.254;2022-08-18T14:43:13;25.90;99.90
4934;DHT22;2482;49.154;8.254;2022-08-18T14:45:42;25.80;99.90
4934;DHT22;2482;49.154;8.254;2022-08-18T14:48:19;25.80;99.90
4934;DHT22;2482;49.154;8.254;2022-08-18T14:50:54;25.80;99.90
4934;DHT22;2482;49.154;8.254;2022-08-18T14:53:25;25.80;99.90
4934;DHT22;2482;49.154;8.254;2022-08-18T14:55:56;25.80;99.90
4934;DHT22;2482;49.154;8.254;2022-08-18T14:58:27;25.80;99.90
4934;DHT22;2482;49.154;8.254;2022-08-18T15:00:58;25.80;99.90
4934;DHT22;2482;49.154;8.254;2022-08-18T15:03:35;25.90;99.90
4934;DHT22;2482;49.154;8.254;2022-08-18T15:06:05;26.00;99.90
4934;DHT22;2482;49.154;8.254;2022-08-18T15:08:34;26.00;99.90
4934;DHT22;2482;49.154;8.254;2022-08-18T15:11:04;25.90;99.90
4934;DHT22;2482;49.154;8.254;2022-08-18T15:13:39;26.00;99.90
4934;DHT22;2482;49.154;8.254;2022-08-18T15:16:12;26.10;99.90
4934;DHT22;2482;49.154;8.254;2022-08-18T15:18:42;25.90;99.90
4934;DHT22;2482;49.154;8.254;2022-08-18T15:21:11;25.80;99.90
4934;DHT22;2482;49.154;8.254;2022-08-18T15:24:06;25.80;99.90
4934;DHT22;2482;49.154;8.254;2022-08-18T15:26:54;25.80;99.90
4934;DHT22;2482;49.154;8.254;2022-08-18T15:29:25;25.90;99.90
4934;DHT22;2482;49.154;8.254;2022-08-18T15:31:55;25.70;99.90
4934;DHT22;2482;49.154;8.254;2022-08-18T15:34:32;25.60;99.90
4934;DHT22;2482;49.154;8.254;2022-08-18T15:37:13;25.70;99.90
4934;DHT22;2482;49.154;8.254;2022-08-18T15:39:46;25.80;99.90
4934;DHT22;2482;49.154;8.254;2022-08-18T15:42:22;25.70;99.90
4934;DHT22;2482;49.154;8.254;2022-08-18T15:44:49;25.60;99.90
4934;DHT22;2482;49.154;8.254;2022-08-18T15:47:20;25.50;99.90
4934;DHT22;2482;49.154;8.254;2022-08-18T15:49:50;25.50;99.90
4934;DHT22;2482;49.154;8.254;2022-08-18T15:52:21;25.50;99.90
4934;DHT22;2482;49.154;8.254;2022-08-18T15:54:52;25.50;99.90
4934;DHT22;2482;49.154;8.254;2022-08-18T15:57:27;25.50;99.90
4934;DHT22;2482;49.154;8.254;2022-08-18T16:00:17;25.60;99.90
4934;DHT22;2482;49.154;8.254;2022-08-18T16:02:53;25.60;99.90
4934;DHT22;2482;49.154;8.254;2022-08-18T16:05:32;25.50;99.90
4934;DHT22;2482;49.154;8.254;2022-08-18T16:08:04;25.40;99.90
4934;DHT22;2482;49.154;8.254;2022-08-18T16:10:34;25.40;99.90
4934;DHT22;2482;49.154;8.254;2022-08-18T16:13:04;25.50;99.90
4934;DHT22;2482;49.154;8.254;2022-08-18T16:15:36;25.50;99.90
4934;DHT22;2482;49.154;8.254;2022-08-18T16:18:06;25.40;99.90
4934;DHT22;2482;49.154;8.254;2022-08-18T16:20:35;25.40;99.90
4934;DHT22;2482;49.154;8.254;2022-08-18T16:23:03;25.50;99.90
4934;DHT22;2482;49.154;8.254;2022-08-18T16:25:31;25.30;99.90
4934;DHT22;2482;49.154;8.254;2022-08-18T16:27:59;25.40;99.90
4934;DHT22;2482;49.154;8.254;2022-08-18T16:30:27;25.40;99.90
4934;DHT22;2482;49.154;8.254;2022-08-18T16:32:59;25.40;99.90
4934;DHT22;2482;49.154;8.254;2022-08-18T16:35:29;25.30;99.90
4934;DHT22;2482;49.154;8.254;2022-08-18T16:38:02;25.30;99.90
4934;DHT22;2482;49.154;8.254;2022-08-18T16:40:31;25.30;99.90
4934;DHT22;2482;49.154;8.254;2022-08-18T16:42:59;25.30;99.90
4934;DHT22;2482;49.154;8.254;2022-08-18T16:45:27;25.30;99.90
4934;DHT22;2482;49.154;8.254;2022-08-18T16:47:55;25.30;99.90
4934;DHT22;2482;49.154;8.254;2022-08-18T16:50:22;25.30;99.90
4934;DHT22;2482;49.154;8.254;2022-08-18T16:52:50;25.20;99.90
4934;DHT22;2482;49.154;8.254;2022-08-18T16:55:19;25.20;99.90
4934;DHT22;2482;49.154;8.254;2022-08-18T16:57:46;25.20;99.90
4934;DHT22;2482;49.154;8.254;2022-08-18T17:00:32;25.20;99.90
4934;DHT22;2482;49.154;8.254;2022-08-18T17:03:22;25.20;99.90
4934;DHT22;2482;49.154;8.254;2022-08-18T17:06:12;25.20;99.90
4934;DHT22;2482;49.154;8.254;2022-08-18T17:08:41;25.20;99.90
4934;DHT22;2482;49.154;8.254;2022-08-18T17:11:13;25.20;99.90
4934;DHT22;2482;49.154;8.254;2022-08-18T17:13:43;25.10;99.90
4934;DHT22;2482;49.154;8.254;2022-08-18T17:16:14;25.00;99.90
4934;DHT22;2482;49.154;8.254;2022-08-18T17:18:42;25.00;99.90
4934;DHT22;2482;49.154;8.254;2022-08-18T17:21:13;24.90;99.90
4934;DHT22;2482;49.154;8.254;2022-08-18T17:23:41;24.90;99.90
4934;DHT22;2482;49.154;8.254;2022-08-18T17:26:38;24.90;99.90
4934;DHT22;2482;49.154;8.254;2022-08-18T17:29:33;24.80;99.90
4934;DHT22;2482;49.154;8.254;2022-08-18T17:35:25;24.80;99.90
4934;DHT22;2482;49.154;8.254;2022-08-18T17:38:01;24.70;99.90
4934;DHT22;2482;49.154;8.254;2022-08-18T17:40:50;24.70;99.90
4934;DHT22;2482;49.154;8.254;2022-08-18T17:43:34;24.60;99.90
4934;DHT22;2482;49.154;8.254;2022-08-18T17:46:19;24.60;99.90
4934;DHT22;2482;49.154;8.254;2022-08-18T17:49:02;24.60;99.90
4934;DHT22;2482;49.154;8.254;2022-08-18T17:51:44;24.60;99.90
4934;DHT22;2482;49.154;8.254;2022-08-18T17:54:38;24.40;99.90
4934;DHT22;2482;49.154;8.254;2022-08-18T17:57:28;24.50;99.90
4934;DHT22;2482;49.154;8.254;2022-08-18T18:00:08;24.40;99.90
4934;DHT22;2482;49.154;8.254;2022-08-18T18:02:39;24.40;99.90
4934;DHT22;2482;49.154;8.254;2022-08-18T18:05:10;24.30;99.90
4934;DHT22;2482;49.154;8.254;2022-08-18T18:15:56;24.00;99.90
4934;DHT22;2482;49.154;8.254;2022-08-18T18:18:41;24.00;99.90
4934;DHT22;2482;49.154;8.254;2022-08-18T18:23:43;23.90;99.90
4934;DHT22;2482;49.154;8.254;2022-08-18T18:26:29;23.80;99.90
4934;DHT22;2482;49.154;8.254;2022-08-18T18:32:20;23.70;99.90
4934;DHT22;2482;49.154;8.254;2022-08-18T18:38:04;23.70;99.90
4934;DHT22;2482;49.154;8.254;2022-08-18T18:40:35;23.80;99.90
4934;DHT22;2482;49.154;8.254;2022-08-18T18:43:22;23.70;99.90
4934;DHT22;2482;49.154;8.254;2022-08-18T18:49:38;23.50;99.90
4934;DHT22;2482;49.154;8.254;2022-08-18T18:52:33;23.40;99.90
4934;DHT22;2482;49.154;8.254;2022-08-18T18:55:24;23.20;99.90
4934;DHT22;2482;49.154;8.254;2022-08-18T18:58:47;23.00;99.90
4934;DHT22;2482;49.154;8.254;2022-08-18T19:01:42;22.90;99.90
4934;DHT22;2482;49.154;8.254;2022-08-18T19:04:19;22.70;99.90
4934;DHT22;2482;49.154;8.254;2022-08-18T19:07:02;22.40;99.90
4934;DHT22;2482;49.154;8.254;2022-08-18T19:09:42;22.40;99.90
4934;DHT22;2482;49.154;8.254;2022-08-18T19:12:25;22.30;99.90